Time;durP1;ratioP1;P1;durP2;ratioP2;P2;SDS_P1;SDS_P2;PMS_P1;PMS_P2;Temp;Humidity;BMP_temperature;BMP_pressure;BME280_temperature;BME280_humidity;BME280_pressure;Samples;Min_cycle;Max_cycle;Signal;HPM_P1;HPM_P2
2023/07/14 00:00:39;;;;;;;8.10;6.05;;;;;;;25.51;71.61;99070.22;5022419;28;20078;-90
2023/07/14 00:03:05;;;;;;;11.15;5.88;;;;;;;25.39;70.96;99060.22;4977936;28;20049;-89
2023/07/14 00:05:36;;;;;;;9.00;6.50;;;;;;;25.41;71.38;99061.41;4947414;28;20034;-90
2023/07/14 00:08:03;;;;;;;;;;;;;;;25.32;71.13;99058.19;4947718;28;20041;-90
2023/07/14 00:10:33;;;;;;;8.40;5.72;;;;;;;25.24;71.39;99044.69;4979773;28;19909;-89
2023/07/14 00:13:03;;;;;;;9.45;6.25;;;;;;;25.19;71.30;99043.00;4963283;28;20042;-89
2023/07/14 00:15:31;;;;;;;9.95;6.00;;;;;;;25.17;71.31;99043.41;4947299;28;20030;-89
2023/07/14 00:18:18;;;;;;;8.95;6.72;;;;;;;25.19;71.93;99049.34;4946332;28;20121;-89
2023/07/14 00:20:44;;;;;;;8.57;5.57;;;;;;;25.08;72.74;99040.13;4975791;28;20557;-89
2023/07/14 00:23:12;;;;;;;10.77;6.43;;;;;;;25.03;71.95;99045.97;4976007;28;20043;-90
2023/07/14 00:25:41;;;;;;;9.40;6.30;;;;;;;24.89;72.52;99032.00;4943441;28;20034;-89
2023/07/14 00:28:20;;;;;;;8.73;6.15;;;;;;;24.85;73.23;99040.22;4992565;28;20039;-89
2023/07/14 00:30:50;;;;;;;10.10;6.75;;;;;;;24.81;73.31;99039.38;4958786;28;20535;-89
2023/07/14 00:33:18;;;;;;;9.02;6.75;;;;;;;24.78;73.77;99046.44;5002158;28;20045;-90
2023/07/14 00:35:43;;;;;;;10.30;6.55;;;;;;;24.72;73.41;99036.91;5001154;28;20068;-89
2023/07/14 00:38:09;;;;;;;13.80;6.22;;;;;;;24.66;73.12;99021.06;5002582;28;20116;-90
2023/07/14 00:40:45;;;;;;;7.90;6.25;;;;;;;24.60;73.42;99017.84;4986606;28;20036;-90
2023/07/14 00:43:24;;;;;;;9.43;6.00;;;;;;;24.59;73.88;99028.06;4986050;28;20025;-89
2023/07/14 00:45:51;;;;;;;14.60;6.25;;;;;;;24.70;73.41;99038.44;5001980;28;20111;-90
2023/07/14 00:48:19;;;;;;;10.30;6.28;;;;;;;24.64;73.50;99034.41;4986295;28;20030;-90
2023/07/14 00:50:55;;;;;;;9.25;6.50;;;;;;;24.61;73.95;99022.16;5002018;28;20026;-89
2023/07/14 00:53:33;;;;;;;11.60;6.40;;;;;;;24.64;73.19;99009.63;5002262;28;20030;-89
2023/07/14 00:56:10;;;;;;;13.93;6.10;;;;;;;24.66;73.29;99012.81;4987183;28;20034;-90
2023/07/14 00:58:37;;;;;;;8.77;6.15;;;;;;;24.59;73.44;99005.22;5018476;28;20052;-89
2023/07/14 01:01:25;;;;;;;7.68;5.93;;;;;;;24.55;73.63;98999.69;5019655;28;20121;-89
2023/07/14 01:03:57;;;;;;;8.13;6.60;;;;;;;24.54;73.81;99011.06;5005933;28;20457;-90
2023/07/14 01:06:58;;;;;;;8.77;6.32;;;;;;;24.49;74.03;99006.69;5005726;28;20044;-90
2023/07/14 01:09:24;;;;;;;9.48;5.95;;;;;;;24.47;73.75;99006.22;4965475;28;20146;-89
2023/07/14 01:11:54;;;;;;;9.32;6.32;;;;;;;24.45;74.11;99000.31;4966092;28;20042;-90
2023/07/14 01:14:26;;;;;;;11.30;5.97;;;;;;;24.35;74.06;98987.16;4982878;28;20113;-89
2023/07/14 01:16:53;;;;;;;8.57;6.30;;;;;;;24.48;73.62;99001.50;4966465;28;20037;-90
2023/07/14 01:19:30;;;;;;;9.02;6.32;;;;;;;24.51;73.48;99004.34;4985462;28;20077;-89
2023/07/14 01:22:39;;;;;;;9.10;6.15;;;;;;;24.59;73.10;99000.53;4984750;28;20037;-90
2023/07/14 01:25:07;;;;;;;11.05;6.50;;;;;;;24.53;73.16;98992.94;4991224;28;20057;-89
2023/07/14 01:27:33;;;;;;;11.35;6.45;;;;;;;24.38;73.30;98989.16;5018272;28;20029;-89
2023/07/14 01:29:58;;;;;;;9.15;6.05;;;;;;;24.41;73.25;98986.47;5001992;28;20034;-90
2023/07/14 01:32:25;;;;;;;11.85;6.75;;;;;;;24.40;72.98;98989.59;4985262;28;20040;-90
2023/07/14 01:34:52;;;;;;;10.60;6.65;;;;;;;24.34;73.59;98986.38;5001105;28;20116;-90
2023/07/14 01:37:19;;;;;;;11.98;6.25;;;;;;;24.38;73.25;98984.47;5001744;28;20034;-89
2023/07/14 01:39:46;;;;;;;9.75;6.38;;;;;;;24.32;73.45;98994.22;4991941;28;20048;-89
2023/07/14 01:42:14;;;;;;;7.80;6.40;;;;;;;24.34;73.24;98997.41;5008131;28;20511;-89
2023/07/14 01:44:41;;;;;;;8.23;6.30;;;;;;;24.28;73.50;98992.56;5024877;28;20033;-89
2023/07/14 01:47:11;;;;;;;8.07;5.88;;;;;;;24.36;72.31;98994.25;5023107;28;20102;-90
2023/07/14 01:49:42;;;;;;;10.38;6.25;;;;;;;24.24;72.74;98976.00;5008777;28;20120;-90
2023/07/14 01:52:12;;;;;;;10.77;6.43;;;;;;;24.33;72.19;98989.50;5008967;28;20538;-89
2023/07/14 01:54:45;;;;;;;7.70;6.05;;;;;;;24.39;71.52;98988.81;5008329;28;20069;-90
2023/07/14 01:57:12;;;;;;;8.98;6.22;;;;;;;24.31;71.99;98981.59;5041278;28;20029;-90
2023/07/14 01:59:43;;;;;;;8.60;6.18;;;;;;;24.30;71.91;98991.03;5024423;28;20028;-89
2023/07/14 02:02:12;;;;;;;11.93;6.32;;;;;;;24.39;70.61;98999.81;5039413;28;20116;-89
2023/07/14 02:04:38;;;;;;;12.52;6.70;;;;;;;24.39;70.32;98993.53;5025282;28;20037;-89
2023/07/14 02:07:08;;;;;;;8.55;5.55;;;;;;;24.50;69.27;98999.22;5024989;28;20065;-89
2023/07/14 02:09:35;;;;;;;13.00;5.75;;;;;;;24.60;68.53;99015.09;5039336;28;20045;-89
2023/07/14 02:12:04;;;;;;;8.48;5.75;;;;;;;24.49;70.67;99019.63;5023978;28;20482;-89
2023/07/14 02:14:35;;;;;;;7.43;5.43;;;;;;;24.24;70.79;99000.78;5023541;28;20036;-90
2023/07/14 02:17:04;;;;;;;11.90;6.10;;;;;;;24.28;70.90;99011.81;5024433;28;20033;-89
2023/07/14 02:19:29;;;;;;;9.80;5.80;;;;;;;24.13;71.47;98999.78;5008401;28;20041;-89
2023/07/14 02:21:55;;;;;;;10.13;5.85;;;;;;;24.14;71.48;99018.69;5007828;28;20067;-89
2023/07/14 02:24:21;;;;;;;8.65;5.80;;;;;;;24.02;71.71;99018.88;5007726;28;20028;-89
2023/07/14 02:27:02;;;;;;;9.10;5.43;;;;;;;24.05;71.52;99033.84;5007377;28;20029;-89
2023/07/14 02:29:29;;;;;;;14.63;7.03;;;;;;;24.03;71.72;99023.22;5023591;28;20075;-90
2023/07/14 02:32:05;;;;;;;9.60;6.18;;;;;;;23.99;71.88;99031.41;5023216;28;20049;-89
2023/07/14 02:34:34;;;;;;;9.60;6.63;;;;;;;23.98;72.44;99040.03;5024853;28;20024;-89
2023/07/14 02:37:03;;;;;;;10.30;6.55;;;;;;;23.86;72.52;99037.44;5007753;28;20552;-89
2023/07/14 02:39:49;;;;;;;10.30;6.35;;;;;;;23.84;72.10;99043.31;5007955;28;20059;-89
2023/07/14 02:42:14;;;;;;;12.57;6.55;;;;;;;23.82;72.32;99042.88;5025886;28;20379;-90
2023/07/14 02:44:40;;;;;;;10.52;6.85;;;;;;;23.73;72.90;99045.06;5007181;28;20037;-89
2023/07/14 02:47:11;;;;;;;11.15;6.38;;;;;;;23.77;72.91;99054.19;5006916;28;20025;-89
2023/07/14 02:49:36;;;;;;;12.30;6.00;;;;;;;23.69;73.49;99053.22;5007522;28;20021;-89
2023/07/14 02:52:02;;;;;;;10.57;6.22;;;;;;;23.64;73.82;99055.47;5022585;28;20041;-89
2023/07/14 02:54:28;;;;;;;12.55;6.57;;;;;;;23.55;73.93;99047.47;5006861;28;20035;-89
2023/07/14 02:56:55;;;;;;;7.93;6.35;;;;;;;23.59;73.90;99054.63;5023904;28;20482;-90
2023/07/14 02:59:22;;;;;;;10.52;6.50;;;;;;;23.53;73.77;99058.00;5023384;28;20486;-90
2023/07/14 03:01:47;;;;;;;13.77;6.38;;;;;;;23.59;73.80;99071.13;5007445;28;20462;-90
2023/07/14 03:04:13;;;;;;;9.18;6.68;;;;;;;23.58;73.63;99072.25;5007010;28;20060;-90
2023/07/14 03:06:39;;;;;;;10.52;6.78;;;;;;;23.52;74.41;99073.72;5022858;28;20112;-90
2023/07/14 03:09:05;;;;;;;11.27;6.15;;;;;;;23.55;74.15;99084.00;5005658;28;20032;-90
2023/07/14 03:11:31;;;;;;;9.07;6.68;;;;;;;23.65;73.83;99079.84;5023084;28;20032;-89
2023/07/14 03:13:56;;;;;;;10.95;7.70;;;;;;;23.67;74.44;99085.00;5023054;28;20035;-90
2023/07/14 03:16:22;;;;;;;13.43;8.45;;;;;;;23.54;74.15;99082.41;5007280;28;20037;-90
2023/07/14 03:18:48;;;;;;;11.25;7.53;;;;;;;23.42;73.73;99076.25;5038380;28;20097;-88
2023/07/14 03:21:16;;;;;;;12.10;7.00;;;;;;;23.51;73.62;99096.88;5006869;28;20049;-92
2023/07/14 03:23:42;;;;;;;13.30;6.32;;;;;;;23.46;73.86;99091.66;5022751;28;20033;-90
2023/07/14 03:26:08;;;;;;;16.40;6.88;;;;;;;23.28;74.18;99080.28;5040044;28;20025;-90
2023/07/14 03:28:34;;;;;;;12.38;7.13;;;;;;;23.32;74.72;99099.59;5022683;28;20029;-90
2023/07/14 03:31:04;;;;;;;10.10;7.13;;;;;;;23.44;74.38;99115.16;5023077;28;20056;-89
2023/07/14 03:33:30;;;;;;;15.82;8.85;;;;;;;23.35;74.74;99116.16;5007281;28;20106;-89
2023/07/14 03:35:56;;;;;;;10.30;7.00;;;;;;;23.43;74.77;99132.78;5006859;28;20029;-89
2023/07/14 03:38:23;;;;;;;9.20;7.28;;;;;;;23.33;74.64;99136.94;5007861;28;20036;-89
2023/07/14 03:40:49;;;;;;;13.90;6.95;;;;;;;23.51;74.55;99195.81;5005804;28;20486;-90
2023/07/14 03:43:15;;;;;;;13.18;7.10;;;;;;;23.55;73.70;99187.63;5023532;28;20028;-90
2023/07/14 03:45:45;;;;;;;8.88;7.20;;;;;;;23.54;73.16;99192.34;5007275;28;20402;-89
2023/07/14 03:48:10;;;;;;;14.88;8.15;;;;;;;23.69;73.93;99236.63;5022693;28;20082;-89
2023/07/14 03:50:38;;;;;;;19.40;7.78;;;;;;;23.55;74.00;99223.34;5006950;28;20483;-89
2023/07/14 03:53:03;;;;;;;15.48;6.88;;;;;;;23.79;71.07;99225.88;5022908;28;20082;-91
2023/07/14 03:55:33;;;;;;;9.40;6.80;;;;;;;24.08;70.44;99247.69;5032933;28;20052;-90
2023/07/14 03:57:59;;;;;;;11.00;7.57;;;;;;;24.16;71.66;99255.72;5004705;28;20028;-91
2023/07/14 04:00:25;;;;;;;11.70;7.38;;;;;;;24.10;72.49;99270.13;5023453;28;20487;-93
2023/07/14 04:02:53;;;;;;;10.43;6.82;;;;;;;24.12;71.99;99256.81;5023332;28;20504;-91
2023/07/14 04:05:19;;;;;;;8.38;6.22;;;;;;;24.29;70.34;99270.09;5006033;28;20094;-90
2023/07/14 04:07:47;;;;;;;13.75;6.85;;;;;;;24.30;69.64;99263.47;5038879;28;20040;-90
2023/07/14 04:10:13;;;;;;;9.13;5.70;;;;;;;24.49;69.03;99272.84;5011132;28;20053;-91
2023/07/14 04:12:39;;;;;;;14.20;7.80;;;;;;;24.56;70.07;99273.00;5014535;28;20025;-90
2023/07/14 04:15:08;;;;;;;14.20;6.95;;;;;;;24.79;68.14;99289.56;5007310;28;20462;-96
2023/07/14 04:17:34;;;;;;;9.75;6.30;;;;;;;24.93;67.80;99314.59;5024572;28;20060;-95
2023/07/14 04:20:00;;;;;;;13.75;7.65;;;;;;;24.83;68.46;99293.16;5023777;28;20545;-94
2023/07/14 04:22:26;;;;;;;11.52;6.60;;;;;;;24.85;67.95;99290.06;5024179;28;20025;-95
2023/07/14 04:24:51;;;;;;;9.43;6.68;;;;;;;25.14;67.88;99316.91;5023992;28;20044;-94
2023/07/14 04:27:23;;;;;;;13.10;7.03;;;;;;;25.14;67.73;99322.44;5004501;28;20473;-94
2023/07/14 04:29:49;;;;;;;11.35;7.15;;;;;;;25.28;68.13;99332.94;4987840;28;20018;-95
2023/07/14 04:32:17;;;;;;;13.70;7.57;;;;;;;25.28;67.50;99308.13;5005976;28;20029;-95
2023/07/14 04:34:45;;;;;;;20.55;7.45;;;;;;;25.41;67.84;99333.53;4992185;28;20025;-94
2023/07/14 04:37:11;;;;;;;10.50;7.25;;;;;;;25.48;67.27;99322.59;5009284;28;20030;-94
2023/07/14 04:39:36;;;;;;;13.38;7.65;;;;;;;25.54;66.79;99309.31;4993639;28;20490;-94
2023/07/14 04:42:04;;;;;;;11.00;6.85;;;;;;;25.71;66.93;99343.84;5010238;28;20041;-95
2023/07/14 04:44:33;;;;;;;11.82;6.93;;;;;;;25.77;66.53;99353.38;5027327;28;20037;-94
2023/07/14 04:47:02;;;;;;;10.05;6.90;;;;;;;25.93;66.19;99389.91;5009940;28;20546;-96
2023/07/14 04:49:37;;;;;;;12.57;6.72;;;;;;;25.98;65.54;99395.13;5008829;28;20075;-95
2023/07/14 04:52:35;;;;;;;11.40;6.75;;;;;;;26.03;65.81;99410.56;5010630;28;20021;-96
2023/07/14 04:55:01;;;;;;;12.25;7.00;;;;;;;26.08;64.31;99418.50;5021418;28;20045;-94
2023/07/14 04:57:34;;;;;;;11.23;6.35;;;;;;;26.03;63.24;99416.09;5006672;28;20017;-90
2023/07/14 05:00:00;;;;;;;10.02;5.82;;;;;;;26.29;62.00;99466.91;5007386;28;20472;-90
2023/07/14 05:02:26;;;;;;;13.50;6.70;;;;;;;26.35;61.69;99454.38;5012380;28;20006;-94
2023/07/14 05:15:20;;;;;;;11.45;7.05;;;;;;;26.05;62.01;99504.03;5032696;28;20077;-96
2023/07/14 05:17:46;;;;;;;12.20;7.05;;;;;;;26.12;62.97;99512.41;5003708;28;20050;-96
2023/07/14 05:20:15;;;;;;;12.98;7.88;;;;;;;25.91;62.51;99497.09;5027582;28;20076;-96
2023/07/14 05:23:01;;;;;;;12.77;8.27;;;;;;;26.11;62.65;99521.84;5033588;28;20052;-96
2023/07/14 05:25:27;;;;;;;12.38;7.72;;;;;;;26.06;62.67;99511.13;5039099;28;20021;-96
2023/07/14 05:31:19;;;;;;;13.82;7.68;;;;;;;25.70;63.57;99496.69;5034920;28;20041;-96
2023/07/14 05:34:07;;;;;;;11.30;7.85;;;;;;;25.76;64.59;99514.53;5041296;28;20045;-96
2023/07/14 05:54:54;;;;;;;14.48;7.78;;;;;;;26.23;61.24;99535.47;5543293;23;20146;-96
2023/07/14 06:03:32;;;;;;;9.43;6.32;;;;;;;26.27;60.55;99538.25;5202630;22;20099;-92
2023/07/14 06:05:57;;;;;;;14.77;6.78;;;;;;;26.46;59.84;99546.47;4990027;28;20069;-90
2023/07/14 06:08:31;;;;;;;13.48;7.00;;;;;;;26.48;58.87;99532.25;4981541;28;20038;-91
2023/07/14 06:11:04;;;;;;;14.05;6.28;;;;;;;26.49;57.78;99529.13;4999805;28;20126;-94
2023/07/14 06:13:52;;;;;;;11.63;6.00;;;;;;;26.70;58.42;99544.47;4973448;28;20039;-96
2023/07/14 06:16:47;;;;;;;11.38;6.15;;;;;;;26.64;57.84;99527.41;5014229;23;20053;-96
2023/07/14 06:19:14;;;;;;;9.75;5.97;;;;;;;26.91;56.55;99552.25;5011301;28;20030;-96
2023/07/14 06:22:07;;;;;;;9.27;5.38;;;;;;;27.00;54.86;99567.38;5016795;28;20025;-92
2023/07/14 06:24:36;;;;;;;13.05;5.72;;;;;;;26.98;55.22;99550.38;4998218;28;20029;-92
2023/07/14 06:27:26;;;;;;;17.50;5.30;;;;;;;26.91;53.26;99522.63;4994961;28;20026;-96
2023/07/14 06:29:51;;;;;;;10.88;4.75;;;;;;;27.14;52.71;99530.81;5009076;28;20410;-94
2023/07/14 06:32:30;;;;;;;9.52;4.90;;;;;;;27.29;52.18;99542.06;4973871;28;20030;-96
2023/07/14 06:34:56;;;;;;;11.68;5.70;;;;;;;27.34;51.72;99534.25;5004265;28;20064;-94
2023/07/14 06:40:44;;;;;;;11.18;5.10;;;;;;;27.29;52.81;99534.59;4949367;29;20091;-95
2023/07/14 06:43:10;;;;;;;8.07;5.05;;;;;;;27.34;52.71;99520.41;4976859;28;20034;-94
2023/07/14 06:52:13;;;;;;;10.23;5.55;;;;;;;27.52;52.10;99533.66;6001029;22;20098;-94
2023/07/14 06:55:00;;;;;;;10.20;6.25;;;;;;;27.40;51.89;99513.38;5038575;28;20017;-91
2023/07/14 06:57:27;;;;;;;12.77;5.53;;;;;;;27.51;51.54;99513.50;5002202;28;20092;-92
2023/07/14 07:00:05;;;;;;;;;;;;;;;;;;;;;
2023/07/14 07:02:33;;;;;;;10.27;4.90;;;;;;;27.53;50.63;99516.66;5020539;28;20065;-93
2023/07/14 07:04:59;;;;;;;10.77;5.55;;;;;;;27.54;50.84;99515.50;5000381;28;20048;-92
2023/07/14 07:07:24;;;;;;;19.33;16.83;;;;;;;27.80;50.90;99527.59;5000565;28;20025;-91
2023/07/14 07:09:55;;;;;;;32.55;24.95;;;;;;;27.79;49.40;99509.41;5001580;28;20036;-96
2023/07/14 07:12:22;;;;;;;12.98;5.95;;;;;;;27.96;49.92;99499.72;5292617;23;20133;-95
2023/07/14 07:15:13;;;;;;;27.70;14.25;;;;;;;28.11;49.27;99503.38;5038080;28;20006;-95
2023/07/14 07:17:43;;;;;;;9.13;5.35;;;;;;;28.21;47.42;99519.28;5050205;28;20032;-94
2023/07/14 07:20:52;;;;;;;8.35;4.68;;;;;;;28.33;47.89;99521.75;5022384;28;20029;-94
2023/07/14 07:23:20;;;;;;;9.00;4.68;;;;;;;28.46;48.56;99527.75;5000773;28;20049;-94
2023/07/14 07:28:22;;;;;;;7.72;4.80;;;;;;;28.52;47.20;99490.22;5051117;28;20046;-96
2023/07/14 07:31:24;;;;;;;13.90;5.03;;;;;;;28.64;47.65;99500.19;5002260;28;20121;-96
2023/07/14 07:33:49;;;;;;;9.88;4.38;;;;;;;28.55;47.11;99508.84;5034998;28;20034;-94
2023/07/14 07:37:03;;;;;;;10.75;6.47;;;;;;;28.66;48.12;99525.56;4985809;28;20056;-95
2023/07/14 07:39:53;;;;;;;10.35;5.70;;;;;;;28.79;46.90;99499.09;4995787;28;20099;-95
2023/07/14 07:46:05;;;;;;;6.47;4.10;;;;;;;29.02;44.08;99504.31;4931595;29;20095;-96
2023/07/14 07:48:53;;;;;;;12.68;4.78;;;;;;;29.22;45.19;99498.50;4939850;29;20051;-96
2023/07/14 07:58:09;;;;;;;12.63;5.32;;;;;;;29.45;44.93;99487.06;4930622;29;20055;-94
2023/07/14 08:00:36;;;;;;;12.40;5.90;;;;;;;29.55;45.17;99471.59;4911453;29;20070;-96
2023/07/14 08:03:04;;;;;;;8.43;4.00;;;;;;;29.70;43.54;99480.75;4937951;29;20056;-93
2023/07/14 08:05:30;;;;;;;8.43;4.18;;;;;;;29.64;43.48;99483.13;4965902;28;20030;-95
2023/07/14 08:08:05;;;;;;;9.95;4.68;;;;;;;29.50;43.61;99466.44;4977912;28;20077;-96
2023/07/14 08:10:49;;;;;;;14.02;4.38;;;;;;;29.31;43.91;99457.28;5000947;28;20045;-94
2023/07/14 08:13:38;;;;;;;6.00;3.85;;;;;;;29.40;43.48;99449.38;4999863;28;20037;-96
2023/07/14 08:16:10;;;;;;;9.77;4.63;;;;;;;29.62;43.64;99461.28;5000039;28;20063;-93
2023/07/14 08:18:36;;;;;;;11.63;4.45;;;;;;;29.83;44.04;99467.28;4991368;28;20056;-94
2023/07/14 08:21:42;;;;;;;9.02;4.30;;;;;;;29.97;41.99;99451.41;4997470;28;20045;-91
2023/07/14 08:24:21;;;;;;;;;;;;;;;;;;;;;
2023/07/14 08:26:47;;;;;;;22.92;12.27;;;;;;;30.17;43.45;99451.78;5001876;28;20132;-90
2023/07/14 08:29:19;;;;;;;9.35;4.53;;;;;;;30.00;42.25;99438.72;4979956;28;20069;-92
2023/07/14 08:31:44;;;;;;;9.82;4.63;;;;;;;30.21;42.70;99449.00;4971621;28;20032;-92
2023/07/14 08:34:10;;;;;;;9.02;4.15;;;;;;;30.17;40.77;99439.88;4983758;28;20022;-91
2023/07/14 08:36:35;;;;;;;10.40;3.90;;;;;;;30.28;41.74;99450.94;4991514;28;20036;-93
2023/07/14 08:39:01;;;;;;;8.43;4.20;;;;;;;30.24;40.56;99437.09;4995188;28;20033;-91
2023/07/14 08:41:35;;;;;;;11.20;4.90;;;;;;;30.45;41.50;99454.94;4995359;28;20072;-92
2023/07/14 08:44:39;;;;;;;8.13;4.10;;;;;;;30.60;40.10;99459.25;4992019;28;20025;-91
2023/07/14 08:47:22;;;;;;;9.48;4.20;;;;;;;30.49;41.28;99433.50;5021489;28;20407;-94
2023/07/14 08:50:18;;;;;;;9.75;4.25;;;;;;;30.60;41.31;99462.81;5006011;28;20025;-93
2023/07/14 08:52:47;;;;;;;10.52;4.35;;;;;;;30.55;41.15;99435.44;4947746;28;20470;-94
2023/07/14 08:55:16;;;;;;;12.00;4.53;;;;;;;30.85;40.24;99452.78;4931031;28;20023;-94
2023/07/14 08:58:08;;;;;;;10.73;4.80;;;;;;;30.88;39.64;99430.56;4945785;28;20062;-94
2023/07/14 09:03:59;;;;;;;7.90;4.28;;;;;;;30.96;39.71;99434.09;4979314;28;20097;-92
2023/07/14 09:06:35;;;;;;;58.67;39.08;;;;;;;31.02;39.64;99430.50;4949486;28;20070;-92
2023/07/14 09:12:47;;;;;;;9.70;4.40;;;;;;;31.14;36.63;99426.44;5465245;22;20062;-95
2023/07/14 09:18:54;;;;;;;34.53;24.30;;;;;;;31.11;38.25;99430.03;5046239;28;20040;-96
2023/07/14 09:21:22;;;;;;;13.38;6.68;;;;;;;31.21;40.26;99437.53;4994754;28;20048;-94
2023/07/14 09:24:07;;;;;;;11.45;5.32;;;;;;;31.42;39.58;99433.03;5027701;28;20406;-96
2023/07/14 09:26:57;;;;;;;12.63;7.07;;;;;;;31.27;40.54;99418.41;5047036;28;20064;-95
2023/07/14 09:29:33;;;;;;;10.35;4.78;;;;;;;31.08;40.62;99430.84;4997980;28;20054;-94
2023/07/14 09:32:34;;;;;;;9.70;4.25;;;;;;;31.16;40.71;99415.69;5021099;28;20093;-95
2023/07/14 09:35:52;;;;;;;;;;;;;;;;;;;;;
2023/07/14 09:41:52;;;;;;;9.07;5.03;;;;;;;31.16;40.43;99418.47;4963818;28;20039;-95
2023/07/14 09:44:51;;;;;;;13.38;5.65;;;;;;;31.13;40.77;99399.00;4981349;28;20034;-96
2023/07/14 09:47:40;;;;;;;8.93;4.40;;;;;;;31.35;40.16;99397.66;4971586;28;20030;-94
2023/07/14 09:50:19;;;;;;;12.45;6.95;;;;;;;31.59;40.15;99403.50;4976691;28;20399;-95
2023/07/14 09:53:17;;;;;;;12.13;5.78;;;;;;;31.95;38.63;99425.44;4993182;28;20029;-95
2023/07/14 09:56:25;;;;;;;10.15;4.78;;;;;;;31.99;38.93;99420.66;5025085;28;20041;-96
2023/07/14 09:59:04;;;;;;;11.70;5.45;;;;;;;31.79;38.32;99390.59;5042882;28;20025;-95
2023/07/14 10:01:33;;;;;;;11.15;5.00;;;;;;;32.03;39.00;99398.34;4988549;28;20029;-96
2023/07/14 10:04:13;;;;;;;10.60;5.95;;;;;;;32.39;38.43;99418.22;4985420;28;20033;-92
2023/07/14 10:06:38;;;;;;;9.60;4.60;;;;;;;32.37;37.75;99398.34;4990666;28;20492;-93
2023/07/14 10:09:33;;;;;;;9.50;4.57;;;;;;;32.33;38.36;99392.84;4979007;28;20121;-95
2023/07/14 10:12:22;;;;;;;17.35;5.05;;;;;;;32.52;37.69;99374.69;4960921;28;20125;-95
2023/07/14 10:14:50;;;;;;;7.65;4.28;;;;;;;32.64;37.38;99381.72;5215771;23;20067;-94
2023/07/14 10:17:30;;;;;;;8.30;4.70;;;;;;;32.76;36.43;99389.50;4994724;28;20042;-96
2023/07/14 10:19:59;;;;;;;8.88;4.93;;;;;;;32.78;36.31;99377.94;5017356;28;20021;-96
2023/07/14 10:22:31;;;;;;;6.85;4.60;;;;;;;32.80;36.08;99383.91;4980591;28;20042;-96
2023/07/14 10:42:04;;;;;;;7.70;3.70;;;;;;;32.71;36.01;99359.31;4943439;29;20045;-96
2023/07/14 10:44:42;;;;;;;7.57;3.97;;;;;;;32.81;35.28;99363.97;4943563;29;20093;-96
2023/07/14 10:47:41;;;;;;;11.50;3.88;;;;;;;32.90;35.20;99385.75;4936797;29;20024;-96
2023/07/14 10:50:47;;;;;;;6.97;4.07;;;;;;;32.76;35.29;99383.16;4893076;29;20526;-96
2023/07/14 11:04:31;;;;;;;7.43;4.30;;;;;;;33.00;37.05;99368.06;5068171;26;20045;-96
2023/07/14 11:07:11;;;;;;;5.80;3.65;;;;;;;33.07;37.21;99358.78;5053236;28;20423;-96
2023/07/14 11:09:51;;;;;;;;;;;;;;;;;;;;;
2023/07/14 11:12:45;;;;;;;11.55;4.90;;;;;;;33.15;35.91;99360.28;5029999;28;20064;-96
2023/07/14 11:21:43;;;;;;;8.25;3.45;;;;;;;33.01;34.28;99355.69;6022810;22;20874;-96
2023/07/14 11:24:57;;;;;;;6.93;3.22;;;;;;;32.72;34.88;99332.22;5018028;28;20110;-96
2023/07/14 11:49:56;;;;;;;8.73;3.70;;;;;;;33.31;35.05;99322.56;5006978;28;19981;-96
2023/07/14 11:52:38;;;;;;;10.65;4.25;;;;;;;33.35;35.33;99318.50;4963511;28;20440;-96
2023/07/14 11:55:49;;;;;;;10.82;4.07;;;;;;;33.64;33.88;99342.34;4990785;28;20072;-94
2023/07/14 11:58:59;;;;;;;9.68;5.22;;;;;;;33.55;34.30;99309.38;4958971;29;20042;-96
2023/07/14 12:04:25;;;;;;;7.82;4.53;;;;;;;33.99;34.85;99321.34;5045133;28;20076;-92
2023/07/14 12:07:13;;;;;;;8.05;4.30;;;;;;;33.87;32.57;99320.00;4993164;28;20113;-92
2023/07/14 12:13:21;;;;;;;11.75;4.18;;;;;;;34.12;33.00;99301.94;4998579;28;20104;-91
2023/07/14 12:16:46;;;;;;;10.10;4.35;;;;;;;34.24;33.12;99320.84;4983468;28;20061;-96
2023/07/14 12:20:00;;;;;;;6.30;4.07;;;;;;;34.07;32.32;99297.63;4955288;29;20055;-95
2023/07/14 12:23:06;;;;;;;;;;;;;;;;;;;;;
2023/07/14 12:28:23;;;;;;;11.07;4.78;;;;;;;34.20;33.89;99315.38;5296604;22;20069;-93
2023/07/14 12:30:53;;;;;;;7.43;4.35;;;;;;;34.31;32.81;99320.72;4994131;28;20030;-96
2023/07/14 12:33:23;;;;;;;8.20;4.00;;;;;;;34.27;32.96;99294.06;5013515;28;20120;-96
2023/07/14 12:35:52;;;;;;;8.27;4.40;;;;;;;34.41;33.03;99286.16;4996274;28;20049;-94
2023/07/14 12:41:14;;;;;;;9.32;4.03;;;;;;;34.11;34.08;99278.78;5109023;22;20091;-95
2023/07/14 12:44:05;;;;;;;11.15;4.18;;;;;;;34.16;33.61;99278.31;5034869;28;20041;-95
2023/07/14 12:46:54;;;;;;;9.38;4.25;;;;;;;34.15;32.11;99284.34;5010454;28;20041;-94
2023/07/14 12:49:55;;;;;;;8.48;3.65;;;;;;;34.39;32.32;99310.19;5033088;28;20033;-94
2023/07/14 12:52:28;;;;;;;;;;;;;;;34.26;33.00;99309.25;5007587;28;20047;-95
2023/07/14 12:54:57;;;;;;;7.90;4.35;;;;;;;34.28;32.44;99287.25;5007978;28;19909;-95
2023/07/14 12:57:23;;;;;;;10.68;4.00;;;;;;;34.29;32.18;99284.03;4994323;28;20036;-95
2023/07/14 12:59:54;;;;;;;5.95;3.97;;;;;;;34.30;32.36;99287.59;4996336;28;20029;-94
2023/07/14 13:02:35;;;;;;;9.98;4.00;;;;;;;34.61;31.45;99299.28;5015909;28;20025;-96
2023/07/14 13:05:14;;;;;;;10.43;4.25;;;;;;;34.54;31.88;99296.66;5002859;28;20033;-95
2023/07/14 13:54:38;;;;;;;9.20;3.92;;;;;;;36.49;28.22;99274.38;1057577;22;20401;-86
2023/07/14 13:57:04;;;;;;;10.65;3.50;;;;;;;37.08;27.53;99272.09;4960470;28;20586;-90
2023/07/14 13:59:30;;;;;;;6.60;4.07;;;;;;;37.34;26.76;99272.06;4970933;28;20030;-91
2023/07/14 14:01:56;;;;;;;14.18;4.00;;;;;;;37.87;26.80;99277.03;4951875;28;20022;-91
2023/07/14 14:04:21;;;;;;;9.52;4.22;;;;;;;37.89;25.50;99261.25;4974437;28;20025;-91
2023/07/14 14:06:54;;;;;;;5.97;3.70;;;;;;;38.02;25.73;99258.41;4955977;28;20496;-96
2023/07/14 14:09:20;;;;;;;6.90;4.13;;;;;;;38.26;25.12;99255.88;4980607;28;20056;-95
2023/07/14 14:12:10;;;;;;;8.77;4.15;;;;;;;38.77;24.65;99252.66;4963688;28;20030;-96
2023/07/14 14:14:38;;;;;;;6.13;3.53;;;;;;;38.83;24.10;99260.47;5135594;23;20065;-91
2023/07/14 14:17:06;;;;;;;10.70;3.80;;;;;;;39.10;23.83;99259.78;5003497;28;20041;-90
2023/07/14 14:19:31;;;;;;;7.15;3.90;;;;;;;39.43;23.55;99257.16;4992603;28;20090;-94
2023/07/14 14:22:00;;;;;;;8.15;4.22;;;;;;;39.81;23.60;99278.47;4976452;28;20033;-92
2023/07/14 14:24:29;;;;;;;6.65;3.85;;;;;;;39.79;23.17;99275.34;4990212;28;20025;-92
2023/07/14 14:26:57;;;;;;;8.88;3.83;;;;;;;39.55;23.66;99270.31;4985584;28;20026;-91
2023/07/14 14:29:23;;;;;;;8.60;4.30;;;;;;;39.77;23.19;99258.88;4987059;28;20057;-93
2023/07/14 14:31:51;;;;;;;9.00;4.60;;;;;;;40.24;23.02;99258.78;4970710;28;20090;-94
2023/07/14 14:34:17;;;;;;;6.28;3.53;;;;;;;40.43;22.36;99256.69;4973593;28;20033;-95
2023/07/14 14:36:43;;;;;;;9.88;3.65;;;;;;;40.27;22.76;99257.84;4972544;28;20022;-94
2023/07/14 14:39:16;;;;;;;5.75;3.88;;;;;;;40.58;21.99;99251.94;4970791;28;20109;-94
2023/07/14 14:41:46;;;;;;;6.97;3.40;;;;;;;40.79;22.38;99248.09;4971140;28;20049;-94
2023/07/14 14:48:02;;;;;;;13.00;4.60;;;;;;;41.32;21.30;99255.13;5018120;28;20040;-91
2023/07/14 14:50:27;;;;;;;8.05;3.70;;;;;;;41.25;21.62;99230.06;4985803;28;20026;-93
2023/07/14 14:52:53;;;;;;;11.70;4.40;;;;;;;41.35;21.67;99239.25;4967824;28;20111;-91
2023/07/14 14:55:19;;;;;;;7.70;3.60;;;;;;;41.19;21.39;99251.75;4967275;28;20511;-94
2023/07/14 14:57:53;;;;;;;6.75;3.40;;;;;;;41.22;21.49;99238.72;4971594;28;20030;-92
2023/07/14 15:00:20;;;;;;;4.75;3.28;;;;;;;41.09;20.76;99244.59;4982360;28;20028;-91
2023/07/14 15:02:46;;;;;;;6.00;3.45;;;;;;;41.09;21.18;99225.63;4995109;28;20034;-92
2023/07/14 15:05:14;;;;;;;5.50;3.65;;;;;;;40.70;22.29;99225.53;4968853;28;20033;-93
2023/07/14 15:07:40;;;;;;;5.43;3.88;;;;;;;40.83;22.01;99236.63;4969035;28;20030;-92
2023/07/14 15:10:06;;;;;;;6.95;3.63;;;;;;;39.74;23.10;99236.47;4967877;28;20094;-91
2023/07/14 15:12:31;;;;;;;5.55;3.10;;;;;;;40.43;22.45;99237.75;4968777;28;20030;-91
2023/07/14 15:14:57;;;;;;;12.73;8.05;;;;;;;40.53;22.23;99232.81;4969657;28;20096;-93
2023/07/14 15:17:27;;;;;;;7.45;3.40;;;;;;;40.63;22.13;99227.91;4968151;28;20049;-93
2023/07/14 15:19:54;;;;;;;6.10;3.08;;;;;;;40.59;22.47;99239.38;4968334;28;20033;-93
2023/07/14 15:22:23;;;;;;;6.85;3.05;;;;;;;40.63;21.83;99236.38;4969416;28;20495;-91